METAR Data
IDs: Format: Raw Decoded Include TAF

Data at: 0526 UTC 26 Sep 2018

KRZT 260515Z AUTO 20004KT 10SM SCT016 BKN036 OVC100 21/21 A2998 RMK AO2 LTG DSNT NW
KRZT 260455Z AUTO 20005KT 10SM BKN019 OVC110 22/21 A2997 RMK AO2 LTG DSNT S THRU NW
KRZT 260435Z AUTO 19004KT 10SM SCT021 BKN110 21/21 A2997 RMK AO2
KRZT 260416Z AUTO 19003KT 10SM SCT060 BKN120 21/21 A2998 RMK AO2 LTG DSNT S
KRZT 260415Z AUTO 18003KT 10SM SCT060 SCT070 SCT120 21/21 A2998 RMK AO2 LTG DSNT S
KRZT 260356Z AUTO 00000KT 10SM SCT060 BKN070 22/21 A2998 RMK AO2
KRZT 260355Z AUTO 00000KT 10SM SCT060 BKN070 22/21 A2998 RMK AO2
KRZT 260335Z AUTO 17003KT 10SM BKN070 22/21 A3000 RMK AO2
KRZT 260315Z AUTO 20004KT 10SM SCT041 SCT050 OVC070 22/21 A3000 RMK AO2
KRZT 260255Z AUTO 21006KT 10SM SCT044 BKN060 22/21 A3000 RMK AO2
KRZT 260235Z AUTO 21005KT 10SM SCT021 SCT026 SCT035 22/21 A3000 RMK AO2
KRZT 260215Z AUTO 20009KT 10SM SCT025 SCT035 22/21 A2999 RMK AO2
KRZT 260155Z AUTO 20006KT 10SM SCT045 22/21 A2998 RMK AO2 LTG DSNT SW
KRZT 260135Z AUTO 16005KT 10SM SCT033 BKN043 22/21 A2999 RMK AO2 LTG DSNT NW
KRZT 260116Z AUTO 17004KT 10SM SCT035 SCT120 22/21 A2999 RMK AO2
KRZT 260115Z AUTO 17004KT 10SM BKN035 SCT120 22/21 A2999 RMK AO2
KRZT 260056Z AUTO 18003KT 10SM CLR 22/21 A2999 RMK AO2 LTG DSNT W
KRZT 260055Z AUTO 17003KT 10SM CLR 22/21 A2999 RMK AO2 LTG DSNT W
KRZT 260035Z AUTO 14004KT 10SM SCT043 22/21 A2998 RMK AO2 LTG DSNT W
KRZT 260015Z AUTO 20005KT 10SM SCT041 SCT065 SCT070 22/21 A2999 RMK AO2 LTG DSNT NE AND NW
KRZT 252356Z AUTO 20006KT 10SM SCT025 SCT031 SCT065 23/21 A2999 RMK AO2
KRZT 252355Z AUTO 20006KT 10SM SCT025 SCT031 SCT065 23/21 A2999 RMK AO2
KRZT 252335Z AUTO 19005KT 10SM SCT110 23/21 A2998 RMK AO2 LTG DSNT SW
KRZT 252315Z AUTO 19005KT 10SM BKN110 23/21 A2999 RMK AO2
KRZT 252255Z AUTO 19005KT 10SM SCT065 SCT110 24/21 A2999 RMK AO2
KRZT 252235Z AUTO 20008KT 10SM SCT035 SCT047 SCT065 24/21 A2998 RMK AO2 LTG DSNT SW
KRZT 252216Z AUTO 18008KT 147V207 10SM SCT031 SCT039 BKN055 25/21 A2998 RMK AO2 LTG DSNT SW
KRZT 252215Z AUTO 18006KT 10SM SCT031 SCT039 BKN048 25/21 A2998 RMK AO2 LTG DSNT SW
KRZT 252156Z AUTO 18004KT 10SM VCTS SCT031 BKN039 OVC055 25/21 A2997 RMK AO2 LTG DSNT SW
KRZT 252155Z AUTO 18004KT 10SM SCT031 BKN039 OVC055 25/21 A2997 RMK AO2 TSNO
KRZT 252135Z AUTO 17004KT 10SM BKN031 BKN038 25/21 A2998 RMK AO2 LTG DSNT E AND SW
KRZT 252115Z AUTO 17006KT 10SM BKN031 BKN038 25/21 A2998 RMK AO2 LTG DSNT W
KRZT 252055Z AUTO 19006KT 10SM SCT029 BKN033 BKN040 25/21 A2999 RMK AO2 LTG DSNT SW
KRZT 252035Z AUTO 19008KT 157V217 10SM SCT030 24/22 A2999 RMK AO2
KRZT 252016Z AUTO 16004KT 10SM SCT020 SCT027 SCT034 23/22 A2999 RMK AO2 LTG DSNT SE
KRZT 252015Z AUTO 16004KT 10SM SCT020 SCT027 SCT034 23/22 A2999 RMK AO2 LTG DSNT SE
KRZT 251955Z AUTO 16005KT 10SM SCT020 BKN027 OVC034 23/21 A3000 RMK AO2 LTG DSNT SW AND W
KRZT 251935Z AUTO 16005KT 10SM SCT013 BKN021 OVC031 23/21 A3002 RMK AO2
KRZT 251916Z AUTO 16005KT 10SM BKN019 OVC027 23/21 A3004 RMK AO2
KRZT 251855Z AUTO 18005KT 10SM SCT015 BKN022 OVC033 22/21 A3006 RMK AO2
KRZT 251835Z AUTO 19004KT 10SM BKN022 BKN028 OVC032 23/21 A3007 RMK AO2
KRZT 251815Z AUTO 00000KT 10SM SCT022 BKN026 OVC032 23/21 A3008 RMK AO2
KRZT 251756Z AUTO 19004KT 10SM BKN021 OVC029 22/21 A3009 RMK AO2
KRZT 251755Z AUTO 18004KT 10SM BKN021 OVC029 22/21 A3009 RMK AO2
KRZT 251735Z AUTO 18005KT 10SM SCT013 OVC021 21/21 A3009 RMK AO2 LTG DSNT E
KRZT 251715Z AUTO 18006KT 10SM SCT008 SCT014 OVC019 21/21 A3009 RMK AO2 LTG DSNT E AND NW
KRZT 251655Z AUTO 18005KT 10SM SCT012 OVC018 21/21 A3009 RMK AO2 P0001
KRZT 251635Z AUTO 18004KT 10SM OVC016 20/20 A3009 RMK AO2 P0001 LTG DSNT NE
KRZT 251616Z AUTO 20004KT 10SM OVC018 21/20 A3009 RMK AO2 P0001
KRZT 251555Z AUTO 17005KT 10SM OVC020 21/20 A3009 RMK AO2 LTG DSNT NE AND W
KRZT 251535Z AUTO 19006KT 10SM OVC022 22/20 A3009 RMK AO2 LTG DSNT W
KRZT 251515Z AUTO 19007KT 10SM SCT012 BKN020 OVC025 22/20 A3009 RMK AO2 LTG DSNT W
KRZT 251456Z AUTO 18006KT 10SM SCT013 BKN037 OVC110 22/21 A3010 RMK AO2 LTG DSNT NW
KRZT 251435Z AUTO 20006KT 10SM SCT013 BKN037 OVC080 21/21 A3010 RMK AO2
KRZT 251415Z AUTO 18006KT 10SM SCT020 BKN026 OVC041 21/20 A3010 RMK AO2 LTG DSNT NE
KRZT 251355Z AUTO 19004KT 10SM BKN026 OVC100 20/20 A3009 RMK AO2 LTG DSNT N
KRZT 251335Z AUTO 19005KT 10SM VCTS SCT009 BKN026 OVC080 20/20 A3009 RMK AO2 LTG DSNT N AND NW
KRZT 251315Z AUTO 18005KT 10SM SCT007 BKN041 OVC110 19/19 A3009 RMK AO2 LTG DSNT NW
KRZT 251256Z AUTO 18005KT 10SM SCT007 BKN041 OVC090 19/19 A3009 RMK AO2
KRZT 251255Z AUTO 18005KT 10SM SCT007 BKN041 OVC090 19/19 A3009 RMK AO2 LTG DSNT W
KRZT 251235Z AUTO 17005KT 10SM SCT024 BKN038 BKN070 19/19 A3009 RMK AO2 LTG DSNT NW
KRZT 251215Z AUTO 17007KT 10SM VCTS SCT012 OVC024 18/18 A3009 RMK AO2 LTG DSNT NW
KRZT 251155Z AUTO 18004KT 10SM VCTS SCT010 SCT015 OVC022 18/18 A3009 RMK AO2 LTG DSNT NW
KRZT 251135Z AUTO 17005KT 10SM SCT013 OVC024 18/18 A3009 RMK AO2
KRZT 251116Z AUTO 18004KT 10SM SCT010 BKN013 OVC025 18/18 A3009 RMK AO2 LTG DSNT NW
KRZT 251115Z AUTO 18003KT 10SM BKN013 OVC025 18/18 A3009 RMK AO2 LTG DSNT NW
KRZT 251055Z AUTO 17006KT 10SM BKN011 BKN018 OVC028 18/18 A3008 RMK AO2 LTG DSNT W AND NW
KRZT 251035Z AUTO 18006KT 10SM SCT009 BKN014 OVC024 18/18 A3008 RMK AO2 LTG DSNT W AND NW
KRZT 251015Z AUTO 18004KT 10SM BKN014 OVC023 18/18 A3008 RMK AO2 LTG DSNT W AND NW
KRZT 250955Z AUTO 17004KT 10SM SCT009 BKN016 OVC050 18/18 A3007 RMK AO2 P0002 LTG DSNT W AND NW
KRZT 250935Z AUTO 17003KT 10SM SCT012 BKN024 OVC060 18/18 A3007 RMK AO2 P0002 LTG DSNT W AND NW
KRZT 250915Z AUTO 16005KT 10SM -RA BKN012 BKN028 OVC050 18/18 A3007 RMK AO2 P0001
KRZT 250856Z AUTO 17006KT 10SM BKN012 OVC038 18/18 A3007 RMK AO2
KRZT 250835Z AUTO 17005KT 10SM SCT007 BKN033 OVC038 18/18 A3007 RMK AO2 LTG DSNT NW
KRZT 250815Z AUTO 17006KT 10SM SCT007 SCT012 OVC031 18/18 A3007 RMK AO2
KRZT 250755Z AUTO 16005KT 10SM SCT008 SCT013 OVC031 18/18 A3007 RMK AO2
KRZT 250735Z AUTO 18005KT 10SM SCT006 BKN010 OVC075 18/18 A3008 RMK AO2 LTG DSNT W
KRZT 250716Z AUTO 17005KT 10SM BKN010 BKN032 OVC070 18/18 A3008 RMK AO2
KRZT 250715Z AUTO 18005KT 10SM BKN010 BKN035 OVC070 18/18 A3008 RMK AO2
KRZT 250655Z AUTO 17007KT 10SM OVC010 18/18 A3008 RMK AO2
KRZT 250635Z AUTO 17005KT 10SM SCT008 OVC012 18/18 A3008 RMK AO2
KRZT 250615Z AUTO 17005KT 10SM BKN010 OVC035 18/18 A3008 RMK AO2
KRZT 250555Z AUTO 17006KT 10SM BKN012 OVC033 19/19 A3008 RMK AO2 LTG DSNT W
KRZT 250535Z AUTO 16006KT 10SM BKN012 OVC035 19/19 A3009 RMK AO2
KRZT 250516Z AUTO 17006KT 10SM SCT008 BKN012 OVC037 19/19 A3009 RMK AO2
KRZT 250515Z AUTO 17006KT 10SM SCT008 BKN012 OVC037 19/19 A3009 RMK AO2
KRZT 250455Z AUTO 17005KT 10SM SCT005 OVC012 19/19 A3010 RMK AO2
KRZT 250435Z AUTO 16005KT 10SM SCT006 OVC012 19/19 A3010 RMK AO2
KRZT 250415Z AUTO 17007KT 10SM SCT007 OVC012 19/19 A3010 RMK AO2
KRZT 250355Z AUTO 17006KT 10SM SCT005 OVC012 19/19 A3010 RMK AO2
KRZT 250335Z AUTO 18006KT 10SM SCT007 OVC010 19/19 A3010 RMK AO2
KRZT 250315Z AUTO 17005KT 10SM SCT007 OVC012 19/19 A3009 RMK AO2
KRZT 250256Z AUTO 16006KT 10SM SCT005 OVC012 19/19 A3009 RMK AO2 P0001
KRZT 250255Z AUTO 16006KT 10SM SCT005 OVC012 19/19 A3009 RMK AO2 P0001
KRZT 250235Z AUTO 17005KT 10SM SCT005 OVC012 19/19 A3009 RMK AO2 P0001
KRZT 250215Z AUTO 17006KT 10SM BKN005 BKN011 OVC017 19/19 A3009 RMK AO2
KRZT 250155Z AUTO 17006KT 10SM BKN005 BKN013 OVC034 19/19 A3009 RMK AO2 P0002
KRZT 250135Z AUTO 18004KT 10SM SCT009 BKN021 OVC045 20/20 A3009 RMK AO2 P0001
KRZT 250116Z AUTO 17009KT 147V207 10SM SCT034 BKN043 OVC049 20/20 A3008 RMK AO2
KRZT 250115Z AUTO 16008KT 10SM SCT034 OVC047 20/20 A3008 RMK AO2
KRZT 250055Z AUTO 17006KT 10SM SCT028 SCT047 OVC050 20/20 A3008 RMK AO2 P0003
KRZT 250035Z AUTO 17007KT 137V197 10SM -RA SCT016 BKN048 OVC060 20/20 A3007 RMK AO2 P0002
KRZT 250015Z AUTO 16005KT 10SM SCT005 BKN038 OVC080 20/20 A3008 RMK AO2
KRZT 242355Z AUTO 16005KT 10SM SCT007 BKN019 OVC065 20/20 A3008 RMK AO2 P0004
KRZT 242335Z AUTO 16006KT 10SM SCT012 BKN022 OVC065 20/20 A3008 RMK AO2 P0002
KRZT 242315Z AUTO 15004KT 10SM -RA BKN007 BKN020 OVC029 20/20 A3008 RMK AO2 P0001
KRZT 242256Z AUTO 16005KT 10SM -RA BKN007 OVC013 20/20 A3008 RMK AO2 P0003
KRZT 242255Z AUTO 17004KT 10SM -RA BKN007 OVC013 20/20 A3009 RMK AO2 P0003
KRZT 242235Z AUTO 00000KT 10SM BKN009 OVC013 20/20 A3008 RMK AO2 P0001
KRZT 242215Z AUTO 17005KT 10SM SCT006 BKN012 OVC110 20/20 A3009 RMK AO2 P0001
KRZT 242155Z AUTO 17007KT 10SM SCT012 BKN026 OVC110 20/20 A3009 RMK AO2 P0004
KRZT 242135Z AUTO 15005KT 10SM SCT010 BKN024 OVC029 20/20 A3009 RMK AO2 P0003
KRZT 242115Z AUTO 15005KT 10SM -RA SCT007 BKN022 OVC029 20/20 A3009 RMK AO2 P0002
KRZT 242055Z AUTO 16005KT 10SM BKN007 BKN014 OVC047 20/20 A3010 RMK AO2 P0004
KRZT 242035Z AUTO 16004KT 10SM SCT007 BKN014 OVC021 20/20 A3010 RMK AO2 P0002
KRZT 242015Z AUTO 15003KT 10SM SCT007 BKN021 OVC032 20/20 A3010 RMK AO2 P0001
KRZT 241955Z AUTO 15006KT 10SM SCT009 BKN018 OVC036 20/20 A3010 RMK AO2 P0005
KRZT 241936Z AUTO 16005KT 10SM -RA SCT007 BKN018 OVC026 20/20 A3011 RMK AO2 P0003
KRZT 241935Z AUTO 15005KT 10SM -RA SCT007 SCT013 OVC018 20/20 A3011 RMK AO2 P0003
KRZT 241915Z AUTO 16005KT 10SM SCT007 OVC013 20/20 A3011 RMK AO2 P0001
KRZT 241856Z AUTO 16005KT 10SM SCT007 OVC014 20/20 A3012 RMK AO2 P0006
KRZT 241855Z AUTO 16004KT 10SM SCT007 BKN016 OVC040 20/20 A3012 RMK AO2 P0006
KRZT 241835Z AUTO 16005KT 10SM -RA SCT007 BKN012 OVC050 20/20 A3012 RMK AO2 P0004
KRZT 241815Z AUTO 16007KT 10SM BKN009 BKN027 OVC070 20/20 A3013 RMK AO2 P0001
KRZT 241755Z AUTO 16006KT 10SM SCT005 BKN011 OVC075 20/20 A3014 RMK AO2 P0001
KRZT 241735Z AUTO 16006KT 10SM BKN005 BKN009 OVC100 20/20 A3015 RMK AO2 P0001